createdAt,value
2023-05-05T03:57:54.519Z,5.20
2023-05-05T04:00:57.582Z,4.82
2023-05-05T04:04:00.374Z,5.00
2023-05-05T04:07:02.868Z,5.80
2023-05-05T04:10:06.794Z,7.30
2023-05-05T04:13:09.321Z,5.20
2023-05-05T04:16:12.103Z,4.90
2023-05-05T04:19:14.454Z,4.97
2023-05-05T04:22:16.846Z,5.03
2023-05-05T04:25:19.117Z,5.00
2023-05-05T04:28:22.849Z,5.12
2023-05-05T04:31:25.036Z,4.68
2023-05-05T04:34:27.541Z,5.32
2023-05-05T04:37:29.836Z,5.70
2023-05-05T04:40:33.153Z,5.10
2023-05-05T04:43:35.760Z,5.30
2023-05-05T04:46:38.460Z,5.80
2023-05-05T04:49:40.716Z,5.20
2023-05-05T04:52:43.131Z,5.87
2023-05-05T04:55:45.319Z,5.70
2023-05-05T04:58:47.696Z,6.05
2023-05-05T05:01:50.542Z,6.10
2023-05-05T05:04:53.028Z,5.30
2023-05-05T05:07:55.187Z,5.87
2023-05-05T05:10:59.369Z,5.70
2023-05-05T05:14:01.636Z,5.82
2023-05-05T05:17:05.867Z,6.40
2023-05-05T05:20:08.948Z,5.95
2023-05-05T05:23:11.892Z,5.70
2023-05-05T05:26:16.455Z,5.95
2023-05-05T05:29:20.391Z,6.40
2023-05-05T05:32:22.838Z,6.28
2023-05-05T05:35:25.678Z,6.30
2023-05-05T05:38:28.143Z,5.15
2023-05-05T05:41:31.126Z,5.15
2023-05-05T05:44:33.291Z,5.47
2023-05-05T05:47:36.554Z,4.57
2023-05-05T05:50:38.919Z,4.32
2023-05-05T05:53:41.751Z,4.80
2023-05-05T05:56:44.480Z,4.40
2023-05-05T05:59:47.468Z,4.28
2023-05-05T06:02:51.501Z,4.30
2023-05-05T06:05:55.132Z,4.12
2023-05-05T06:08:57.465Z,4.72
2023-05-05T06:12:00.004Z,4.00
2023-05-05T06:15:02.383Z,5.20
2023-05-05T06:18:05.253Z,4.43
2023-05-05T06:21:07.488Z,4.55
2023-05-05T06:24:09.893Z,4.87
2023-05-05T06:27:12.187Z,4.90
2023-05-05T06:30:14.715Z,5.78
2023-05-05T06:33:17.262Z,4.80
2023-05-05T06:36:19.784Z,4.70
2023-05-05T06:39:21.951Z,5.30
2023-05-05T06:42:24.335Z,5.78
2023-05-05T06:45:27.648Z,5.72
2023-05-05T06:48:30.237Z,5.10
2023-05-05T06:51:32.508Z,4.87
2023-05-05T06:54:34.954Z,5.07
2023-05-05T06:57:37.191Z,4.97
2023-05-05T07:00:40.973Z,4.82
2023-05-05T07:03:43.847Z,5.10
2023-05-05T07:06:46.247Z,4.50
2023-05-05T07:09:48.424Z,4.50
2023-05-05T07:12:53.251Z,4.65
2023-05-05T07:15:55.601Z,4.55
2023-05-05T07:18:58.137Z,4.10
2023-05-05T07:22:00.454Z,4.45
2023-05-05T07:25:03.909Z,4.68
2023-05-05T07:28:06.377Z,4.28
2023-05-05T07:31:08.986Z,4.32
2023-05-05T07:34:11.112Z,5.05
2023-05-05T07:37:13.520Z,4.80
2023-05-05T07:40:15.778Z,4.30
2023-05-05T07:43:18.219Z,4.85
2023-05-05T07:46:20.377Z,4.78
2023-05-05T07:49:22.927Z,4.53
2023-05-05T07:52:37.365Z,4.82
2023-05-05T07:55:47.342Z,5.03
2023-05-05T07:58:49.463Z,4.60
2023-05-05T08:01:54.338Z,4.43
2023-05-05T08:04:57.462Z,5.28
2023-05-05T08:07:59.671Z,4.85
2023-05-05T08:11:02.984Z,5.22
2023-05-05T08:14:05.226Z,4.80
2023-05-05T08:17:08.012Z,5.70
2023-05-05T08:20:10.236Z,5.10
2023-05-05T08:23:14.226Z,4.75
2023-05-05T08:26:16.770Z,5.75
2023-05-05T08:29:19.183Z,6.22
2023-05-05T08:32:21.307Z,6.55
2023-05-05T08:35:24.084Z,5.97
2023-05-05T08:38:28.290Z,5.22
2023-05-05T08:41:31.009Z,5.85
2023-05-05T08:44:33.666Z,5.55
2023-05-05T08:47:36.976Z,6.10
2023-05-05T08:50:39.955Z,5.75
2023-05-05T08:53:54.732Z,5.70
2023-05-05T08:57:01.822Z,6.40
2023-05-05T09:00:05.118Z,5.75
2023-05-05T09:03:07.677Z,6.47
2023-05-05T09:06:13.933Z,6.78
2023-05-05T09:09:17.976Z,7.05
2023-05-05T09:12:21.757Z,6.37
2023-05-05T09:15:23.946Z,6.32
2023-05-05T09:18:26.848Z,7.10
2023-05-05T09:21:29.374Z,5.25
2023-05-05T09:24:31.724Z,5.97
2023-05-05T09:27:38.469Z,6.30
2023-05-05T09:30:43.423Z,6.43
2023-05-05T09:33:46.108Z,6.72
2023-05-05T09:36:49.026Z,6.43
2023-05-05T09:39:55.374Z,7.07
2023-05-05T09:43:02.839Z,6.10
2023-05-05T09:46:07.445Z,8.23
2023-05-05T09:49:20.012Z,4.72
2023-05-05T09:52:22.473Z,5.75
2023-05-05T09:55:25.473Z,5.45
2023-05-05T09:58:29.436Z,6.07
2023-05-05T10:01:31.898Z,6.10
2023-05-05T10:04:34.427Z,5.80
2023-05-05T10:07:38.069Z,5.37
2023-05-05T10:10:51.691Z,5.07
2023-05-05T10:13:54.004Z,5.05
2023-05-05T10:16:56.860Z,6.03
2023-05-05T10:20:01.255Z,5.10
2023-05-05T10:23:06.901Z,6.10
2023-05-05T10:26:13.954Z,6.40
2023-05-05T10:29:25.558Z,5.87
2023-05-05T10:35:44.713Z,5.60
2023-05-05T10:38:47.507Z,5.82
2023-05-05T10:41:51.698Z,4.90
2023-05-05T10:44:54.188Z,4.65
2023-05-05T10:48:01.060Z,5.85
2023-05-05T10:51:39.431Z,4.65
2023-05-05T10:54:54.868Z,4.70
2023-05-05T10:57:57.024Z,4.62
2023-05-05T11:00:59.581Z,5.62
2023-05-05T11:04:23.678Z,6.85
2023-05-05T11:07:27.412Z,5.82
2023-05-05T11:10:44.008Z,4.65
2023-05-05T11:13:46.570Z,5.90
2023-05-05T11:16:50.496Z,5.03
2023-05-05T11:19:53.556Z,4.93
2023-05-05T11:23:05.992Z,4.25
2023-05-05T11:36:05.012Z,5.15
2023-05-05T11:39:22.096Z,5.80
2023-05-05T11:42:25.635Z,5.65
2023-05-05T11:45:28.240Z,5.40
2023-05-05T11:48:30.378Z,4.93
2023-05-05T11:51:33.428Z,5.95
2023-05-05T11:54:37.721Z,5.12
2023-05-05T11:57:40.216Z,5.25
2023-05-05T12:00:42.376Z,4.60
2023-05-05T12:03:45.800Z,5.15
2023-05-05T12:06:49.993Z,4.97
2023-05-05T12:09:52.804Z,3.78
2023-05-05T12:12:55.626Z,4.00
2023-05-05T12:16:19.851Z,4.25
2023-05-05T12:19:22.634Z,3.40
2023-05-05T12:22:26.602Z,4.00
2023-05-05T12:25:36.825Z,3.90
2023-05-05T12:28:48.190Z,3.83
2023-05-05T12:31:52.322Z,3.87
2023-05-05T12:34:59.148Z,3.60
2023-05-05T12:38:01.457Z,3.60
2023-05-05T12:41:04.448Z,3.70
2023-05-05T12:44:06.686Z,3.83
2023-05-05T12:47:09.551Z,3.58
2023-05-05T12:50:11.800Z,4.50
2023-05-05T12:53:24.877Z,4.57
2023-05-05T12:56:34.687Z,4.07
2023-05-05T12:59:37.091Z,4.15
2023-05-05T13:02:39.246Z,3.90
2023-05-05T13:05:41.703Z,3.95
2023-05-05T13:08:43.852Z,4.37
2023-05-05T13:11:46.268Z,3.97
2023-05-05T13:14:48.464Z,3.78
2023-05-05T13:17:51.026Z,3.62
2023-05-05T13:20:53.225Z,4.72
2023-05-05T13:24:04.946Z,4.25
2023-05-05T13:27:14.479Z,4.25
2023-05-05T13:30:16.950Z,4.65
2023-05-05T13:33:19.061Z,5.07
2023-05-05T13:36:21.537Z,4.93
2023-05-05T13:39:23.763Z,5.10
2023-05-05T13:42:26.218Z,4.72
2023-05-05T13:45:28.560Z,4.85
2023-05-05T13:48:31.484Z,5.75
2023-05-05T13:51:34.775Z,5.70
2023-05-05T13:54:37.580Z,5.43
2023-05-05T13:57:39.771Z,5.22
2023-05-05T14:00:42.328Z,4.95
2023-05-05T14:03:44.760Z,4.53
2023-05-05T14:06:47.018Z,3.67
2023-05-05T14:09:49.417Z,4.10
2023-05-05T14:12:52.233Z,4.03
2023-05-05T14:15:54.620Z,4.03
2023-05-05T14:18:56.761Z,4.80
2023-05-05T14:21:59.204Z,4.18
2023-05-05T14:25:01.365Z,4.60
2023-05-05T14:28:03.963Z,4.93
2023-05-05T14:31:06.092Z,4.62
2023-05-05T14:34:08.551Z,4.68
2023-05-05T14:37:10.718Z,4.95
2023-05-05T14:40:13.184Z,4.75
2023-05-05T14:43:15.267Z,4.90
2023-05-05T14:46:18.722Z,4.60
2023-05-05T14:49:20.840Z,4.82
2023-05-05T14:52:23.354Z,4.50
2023-05-05T14:55:25.990Z,5.10
2023-05-05T14:58:28.408Z,4.57
2023-05-05T15:01:30.721Z,4.25
2023-05-05T15:04:33.174Z,4.60
2023-05-05T15:07:35.341Z,4.32
2023-05-05T15:10:37.707Z,4.15
2023-05-05T15:13:41.355Z,4.70
2023-05-05T15:16:43.793Z,4.55
2023-05-05T15:19:45.906Z,4.80
